sensor_id;sensor_type;location;lat;lon;timestamp;pressure;altitude;pressure_sealevel;temperature;humidity
30618;BME280;17384;51.214;9.202;2023-01-10T00:01:47;98090.91;;;4.25;82.83
30618;BME280;17384;51.214;9.202;2023-01-10T00:04:13;98087.22;;;4.26;82.63
30618;BME280;17384;51.214;9.202;2023-01-10T00:06:38;98101.47;;;4.26;82.75
30618;BME280;17384;51.214;9.202;2023-01-10T00:09:04;98094.03;;;4.28;82.91
30618;BME280;17384;51.214;9.202;2023-01-10T00:11:29;98096.53;;;4.30;82.87
30618;BME280;17384;51.214;9.202;2023-01-10T00:14:13;98108.56;;;4.34;82.63
30618;BME280;17384;51.214;9.202;2023-01-10T00:16:39;98104.78;;;4.28;82.55
30618;BME280;17384;51.214;9.202;2023-01-10T00:19:07;98122.81;;;4.34;82.54
30618;BME280;17384;51.214;9.202;2023-01-10T00:21:33;98119.50;;;4.32;82.93
30618;BME280;17384;51.214;9.202;2023-01-10T00:23:59;98123.84;;;4.33;82.93
30618;BME280;17384;51.214;9.202;2023-01-10T00:26:44;98127.28;;;4.27;83.28
30618;BME280;17384;51.214;9.202;2023-01-10T00:29:21;98144.41;;;4.26;83.37
30618;BME280;17384;51.214;9.202;2023-01-10T00:31:49;98135.72;;;4.24;83.56
30618;BME280;17384;51.214;9.202;2023-01-10T00:34:15;98136.63;;;4.31;83.49
30618;BME280;17384;51.214;9.202;2023-01-10T00:36:40;98146.75;;;4.15;83.78
30618;BME280;17384;51.214;9.202;2023-01-10T00:39:06;98149.78;;;4.26;83.68
30618;BME280;17384;51.214;9.202;2023-01-10T00:41:32;98148.56;;;4.29;83.74
30618;BME280;17384;51.214;9.202;2023-01-10T00:44:16;98165.41;;;4.37;82.99
30618;BME280;17384;51.214;9.202;2023-01-10T00:46:41;98154.66;;;4.37;82.94
30618;BME280;17384;51.214;9.202;2023-01-10T00:49:06;98167.03;;;4.38;82.84
30618;BME280;17384;51.214;9.202;2023-01-10T00:51:36;98166.19;;;4.38;83.07
30618;BME280;17384;51.214;9.202;2023-01-10T00:54:02;98188.09;;;4.35;83.30
30618;BME280;17384;51.214;9.202;2023-01-10T00:56:27;98173.56;;;4.29;83.86
30618;BME280;17384;51.214;9.202;2023-01-10T00:58:53;98187.56;;;4.25;83.65
30618;BME280;17384;51.214;9.202;2023-01-10T01:01:18;98210.06;;;4.24;83.79
30618;BME280;17384;51.214;9.202;2023-01-10T01:03:44;98213.38;;;4.26;84.09
30618;BME280;17384;51.214;9.202;2023-01-10T01:06:09;98209.59;;;4.20;83.74
30618;BME280;17384;51.214;9.202;2023-01-10T01:08:35;98224.41;;;4.16;84.27
30618;BME280;17384;51.214;9.202;2023-01-10T01:11:00;98217.38;;;4.15;84.79
30618;BME280;17384;51.214;9.202;2023-01-10T01:13:26;98233.69;;;4.14;85.15
30618;BME280;17384;51.214;9.202;2023-01-10T01:15:51;98227.88;;;4.10;85.48
30618;BME280;17384;51.214;9.202;2023-01-10T01:18:19;98252.66;;;4.12;85.61
30618;BME280;17384;51.214;9.202;2023-01-10T01:20:46;98258.69;;;4.14;85.56
30618;BME280;17384;51.214;9.202;2023-01-10T01:23:12;98264.22;;;4.13;85.83
30618;BME280;17384;51.214;9.202;2023-01-10T01:25:38;98273.13;;;4.13;85.53
30618;BME280;17384;51.214;9.202;2023-01-10T01:28:04;98268.75;;;4.12;85.93
30618;BME280;17384;51.214;9.202;2023-01-10T01:30:30;98284.69;;;4.14;86.13
30618;BME280;17384;51.214;9.202;2023-01-10T01:32:55;98280.16;;;4.14;85.95
30618;BME280;17384;51.214;9.202;2023-01-10T01:35:21;98283.03;;;4.13;86.00
30618;BME280;17384;51.214;9.202;2023-01-10T01:37:46;98288.56;;;4.11;85.71
30618;BME280;17384;51.214;9.202;2023-01-10T01:40:20;98293.94;;;4.11;85.71
30618;BME280;17384;51.214;9.202;2023-01-10T01:42:47;98292.31;;;4.10;85.50
30618;BME280;17384;51.214;9.202;2023-01-10T01:47:52;98321.75;;;4.03;85.60
30618;BME280;17384;51.214;9.202;2023-01-10T01:50:49;98321.91;;;4.02;85.64
30618;BME280;17384;51.214;9.202;2023-01-10T01:53:26;98329.47;;;4.13;85.56
30618;BME280;17384;51.214;9.202;2023-01-10T01:55:55;98334.59;;;4.08;85.29
30618;BME280;17384;51.214;9.202;2023-01-10T01:58:27;98326.63;;;4.15;85.45
30618;BME280;17384;51.214;9.202;2023-01-10T02:00:56;98336.81;;;4.19;84.83
30618;BME280;17384;51.214;9.202;2023-01-10T02:03:23;98339.38;;;4.13;84.87
30618;BME280;17384;51.214;9.202;2023-01-10T02:05:49;98347.94;;;4.01;85.22
30618;BME280;17384;51.214;9.202;2023-01-10T02:08:15;98353.47;;;4.00;85.46
30618;BME280;17384;51.214;9.202;2023-01-10T02:10:46;98350.69;;;3.93;85.63
30618;BME280;17384;51.214;9.202;2023-01-10T02:13:18;98368.00;;;3.91;85.81
30618;BME280;17384;51.214;9.202;2023-01-10T02:15:44;98346.41;;;3.84;86.23
30618;BME280;17384;51.214;9.202;2023-01-10T02:18:10;98363.34;;;3.85;86.03
30618;BME280;17384;51.214;9.202;2023-01-10T02:29:07;98375.56;;;3.72;85.49
30618;BME280;17384;51.214;9.202;2023-01-10T02:37:28;98388.50;;;3.84;85.31
30618;BME280;17384;51.214;9.202;2023-01-10T02:40:04;98400.84;;;3.78;85.71
30618;BME280;17384;51.214;9.202;2023-01-10T02:45:13;98414.78;;;3.73;85.62
30618;BME280;17384;51.214;9.202;2023-01-10T02:47:41;98408.06;;;3.78;84.18
30618;BME280;17384;51.214;9.202;2023-01-10T02:50:30;98414.78;;;3.73;84.04
30618;BME280;17384;51.214;9.202;2023-01-10T02:53:04;98421.22;;;3.64;84.49
30618;BME280;17384;51.214;9.202;2023-01-10T02:55:56;98419.56;;;3.63;84.43
30618;BME280;17384;51.214;9.202;2023-01-10T03:03:55;98424.13;;;3.40;84.35
30618;BME280;17384;51.214;9.202;2023-01-10T03:06:44;98429.97;;;3.44;84.03
30618;BME280;17384;51.214;9.202;2023-01-10T03:09:33;98447.41;;;3.39;83.92
30618;BME280;17384;51.214;9.202;2023-01-10T03:14:37;98437.22;;;3.35;84.58
30618;BME280;17384;51.214;9.202;2023-01-10T03:17:07;98447.22;;;3.41;84.25
30618;BME280;17384;51.214;9.202;2023-01-10T03:19:38;98451.75;;;3.40;84.73
30618;BME280;17384;51.214;9.202;2023-01-10T03:22:07;98458.31;;;3.38;84.90
30618;BME280;17384;51.214;9.202;2023-01-10T03:24:44;98461.97;;;3.45;85.04
30618;BME280;17384;51.214;9.202;2023-01-10T03:27:13;98468.47;;;3.51;84.84
30618;BME280;17384;51.214;9.202;2023-01-10T03:30:17;98469.28;;;3.51;85.03
30618;BME280;17384;51.214;9.202;2023-01-10T03:32:47;98474.88;;;3.42;84.90
30618;BME280;17384;51.214;9.202;2023-01-10T03:35:13;98486.78;;;3.39;84.63
30618;BME280;17384;51.214;9.202;2023-01-10T03:40:25;98482.88;;;3.27;84.45
30618;BME280;17384;51.214;9.202;2023-01-10T03:42:59;98491.53;;;3.29;84.72
30618;BME280;17384;51.214;9.202;2023-01-10T03:45:58;98506.63;;;3.30;84.87
30618;BME280;17384;51.214;9.202;2023-01-10T03:48:29;98489.06;;;3.27;84.79
30618;BME280;17384;51.214;9.202;2023-01-10T03:50:59;98506.34;;;3.25;84.51
30618;BME280;17384;51.214;9.202;2023-01-10T03:53:27;98506.03;;;3.20;84.33
30618;BME280;17384;51.214;9.202;2023-01-10T03:55:53;98510.38;;;3.21;84.44
30618;BME280;17384;51.214;9.202;2023-01-10T03:58:18;98519.41;;;3.20;84.28
30618;BME280;17384;51.214;9.202;2023-01-10T04:00:47;98532.84;;;3.12;84.15
30618;BME280;17384;51.214;9.202;2023-01-10T04:03:12;98527.31;;;3.13;83.89
30618;BME280;17384;51.214;9.202;2023-01-10T04:05:38;98533.19;;;3.09;83.92
30618;BME280;17384;51.214;9.202;2023-01-10T04:08:04;98523.84;;;3.04;84.18
30618;BME280;17384;51.214;9.202;2023-01-10T04:10:29;98524.13;;;3.18;83.72
30618;BME280;17384;51.214;9.202;2023-01-10T04:12:58;98530.47;;;3.25;83.52
30618;BME280;17384;51.214;9.202;2023-01-10T04:15:24;98549.13;;;3.41;82.93
30618;BME280;17384;51.214;9.202;2023-01-10T04:17:50;98559.59;;;3.28;83.02
30618;BME280;17384;51.214;9.202;2023-01-10T04:20:15;98572.75;;;3.06;83.87
30618;BME280;17384;51.214;9.202;2023-01-10T04:22:41;98569.03;;;3.16;84.26
30618;BME280;17384;51.214;9.202;2023-01-10T04:25:08;98569.66;;;3.26;83.60
30618;BME280;17384;51.214;9.202;2023-01-10T04:27:34;98570.72;;;3.09;83.91
30618;BME280;17384;51.214;9.202;2023-01-10T04:29:59;98582.03;;;2.88;84.16
30618;BME280;17384;51.214;9.202;2023-01-10T04:32:25;98588.06;;;2.73;84.71
30618;BME280;17384;51.214;9.202;2023-01-10T04:34:50;98595.97;;;2.67;84.97
30618;BME280;17384;51.214;9.202;2023-01-10T04:37:18;98599.50;;;2.59;85.63
30618;BME280;17384;51.214;9.202;2023-01-10T04:39:44;98601.00;;;2.62;85.89
30618;BME280;17384;51.214;9.202;2023-01-10T04:42:09;98610.38;;;2.66;85.94
30618;BME280;17384;51.214;9.202;2023-01-10T04:44:35;98619.06;;;2.68;85.97
30618;BME280;17384;51.214;9.202;2023-01-10T04:47:00;98625.28;;;2.60;86.34
30618;BME280;17384;51.214;9.202;2023-01-10T04:49:26;98613.06;;;2.58;86.36
30618;BME280;17384;51.214;9.202;2023-01-10T04:51:51;98625.59;;;2.57;86.78
30618;BME280;17384;51.214;9.202;2023-01-10T04:54:20;98626.59;;;2.56;86.99
30618;BME280;17384;51.214;9.202;2023-01-10T04:56:45;98624.28;;;2.61;86.97
30618;BME280;17384;51.214;9.202;2023-01-10T04:59:11;98634.31;;;2.67;87.03
30618;BME280;17384;51.214;9.202;2023-01-10T05:01:36;98632.59;;;2.83;86.15
30618;BME280;17384;51.214;9.202;2023-01-10T05:04:03;98632.13;;;2.71;86.59
30618;BME280;17384;51.214;9.202;2023-01-10T05:06:29;98633.81;;;2.64;86.75
30618;BME280;17384;51.214;9.202;2023-01-10T05:08:55;98612.06;;;2.59;86.79
30618;BME280;17384;51.214;9.202;2023-01-10T05:11:20;98624.59;;;2.50;86.40
30618;BME280;17384;51.214;9.202;2023-01-10T05:13:46;98625.97;;;2.38;86.87
30618;BME280;17384;51.214;9.202;2023-01-10T05:16:11;98629.31;;;2.40;87.23
30618;BME280;17384;51.214;9.202;2023-01-10T05:18:37;98635.84;;;2.37;87.23
30618;BME280;17384;51.214;9.202;2023-01-10T05:21:05;98643.50;;;2.49;87.44
30618;BME280;17384;51.214;9.202;2023-01-10T05:23:31;98654.22;;;2.65;86.99
30618;BME280;17384;51.214;9.202;2023-01-10T05:25:57;98647.69;;;2.51;86.92
30618;BME280;17384;51.214;9.202;2023-01-10T05:28:22;98656.91;;;2.49;87.36
30618;BME280;17384;51.214;9.202;2023-01-10T05:30:48;98646.34;;;2.47;87.48
30618;BME280;17384;51.214;9.202;2023-01-10T05:33:13;98663.63;;;2.45;87.30
30618;BME280;17384;51.214;9.202;2023-01-10T05:35:39;98668.78;;;2.38;87.43
30618;BME280;17384;51.214;9.202;2023-01-10T05:38:04;98677.00;;;2.36;87.61
30618;BME280;17384;51.214;9.202;2023-01-10T05:40:30;98682.34;;;2.36;87.87
30618;BME280;17384;51.214;9.202;2023-01-10T05:42:55;98692.72;;;2.40;87.84
30618;BME280;17384;51.214;9.202;2023-01-10T05:45:21;98698.41;;;2.36;88.18
30618;BME280;17384;51.214;9.202;2023-01-10T05:47:46;98711.97;;;2.43;88.26
30618;BME280;17384;51.214;9.202;2023-01-10T05:50:11;98719.16;;;2.43;88.10
30618;BME280;17384;51.214;9.202;2023-01-10T05:52:37;98728.84;;;2.52;88.17
30618;BME280;17384;51.214;9.202;2023-01-10T05:55:03;98721.50;;;2.54;88.15
30618;BME280;17384;51.214;9.202;2023-01-10T05:57:30;98725.50;;;2.50;88.23
30618;BME280;17384;51.214;9.202;2023-01-10T05:59:55;98724.84;;;2.80;90.12
30618;BME280;17384;51.214;9.202;2023-01-10T06:02:20;98723.31;;;3.26;90.46
30618;BME280;17384;51.214;9.202;2023-01-10T06:04:47;98735.78;;;3.97;91.49
30618;BME280;17384;51.214;9.202;2023-01-10T06:07:12;98747.16;;;3.99;90.79
30618;BME280;17384;51.214;9.202;2023-01-10T06:09:38;98716.63;;;4.00;89.73
30618;BME280;17384;51.214;9.202;2023-01-10T06:12:03;98730.88;;;3.62;86.60
30618;BME280;17384;51.214;9.202;2023-01-10T06:14:29;98733.47;;;3.39;84.94
30618;BME280;17384;51.214;9.202;2023-01-10T06:16:54;98723.66;;;3.07;85.45
30618;BME280;17384;51.214;9.202;2023-01-10T06:19:20;98722.84;;;2.90;86.16
30618;BME280;17384;51.214;9.202;2023-01-10T06:21:45;98734.56;;;2.81;87.11
30618;BME280;17384;51.214;9.202;2023-01-10T06:24:11;98738.56;;;2.77;87.35
30618;BME280;17384;51.214;9.202;2023-01-10T06:26:36;98746.97;;;2.66;88.35
30618;BME280;17384;51.214;9.202;2023-01-10T06:29:01;98763.88;;;2.66;88.46
30618;BME280;17384;51.214;9.202;2023-01-10T06:31:27;98766.38;;;2.68;88.31
30618;BME280;17384;51.214;9.202;2023-01-10T06:33:52;98783.75;;;2.56;88.57
30618;BME280;17384;51.214;9.202;2023-01-10T06:36:18;98777.72;;;2.54;88.60
30618;BME280;17384;51.214;9.202;2023-01-10T06:38:44;98786.59;;;2.54;88.78
30618;BME280;17384;51.214;9.202;2023-01-10T06:41:09;98780.59;;;2.44;88.81
30618;BME280;17384;51.214;9.202;2023-01-10T06:43:48;98785.25;;;2.42;89.34
30618;BME280;17384;51.214;9.202;2023-01-10T06:46:16;98787.41;;;2.47;89.23
30618;BME280;17384;51.214;9.202;2023-01-10T06:48:43;98791.13;;;2.54;88.96
30618;BME280;17384;51.214;9.202;2023-01-10T06:51:10;98785.78;;;2.46;88.89
30618;BME280;17384;51.214;9.202;2023-01-10T06:53:35;98795.28;;;2.40;89.04
30618;BME280;17384;51.214;9.202;2023-01-10T06:56:01;98797.97;;;2.40;89.20
30618;BME280;17384;51.214;9.202;2023-01-10T06:58:27;98806.66;;;2.50;88.97
30618;BME280;17384;51.214;9.202;2023-01-10T07:00:53;98793.09;;;2.35;88.85
30618;BME280;17384;51.214;9.202;2023-01-10T07:03:19;98811.88;;;2.44;88.90
30618;BME280;17384;51.214;9.202;2023-01-10T07:05:44;98812.19;;;2.41;88.55
30618;BME280;17384;51.214;9.202;2023-01-10T07:08:10;98814.00;;;2.32;88.51
30618;BME280;17384;51.214;9.202;2023-01-10T07:10:35;98821.47;;;2.20;88.68
30618;BME280;17384;51.214;9.202;2023-01-10T07:13:01;98823.84;;;2.23;88.66
30618;BME280;17384;51.214;9.202;2023-01-10T07:15:27;98838.56;;;2.27;88.71
30618;BME280;17384;51.214;9.202;2023-01-10T07:17:55;98831.22;;;2.29;88.90
30618;BME280;17384;51.214;9.202;2023-01-10T07:20:22;98836.91;;;2.26;88.71
30618;BME280;17384;51.214;9.202;2023-01-10T07:22:58;98842.75;;;2.30;88.76
30618;BME280;17384;51.214;9.202;2023-01-10T07:25:26;98833.53;;;2.24;88.41
30618;BME280;17384;51.214;9.202;2023-01-10T07:27:52;98842.03;;;2.20;88.43
30618;BME280;17384;51.214;9.202;2023-01-10T07:30:20;98853.94;;;2.17;88.39
30618;BME280;17384;51.214;9.202;2023-01-10T07:32:56;98840.22;;;2.20;88.59
30618;BME280;17384;51.214;9.202;2023-01-10T07:35:23;98842.25;;;2.26;88.40
30618;BME280;17384;51.214;9.202;2023-01-10T07:37:49;98855.38;;;2.46;87.48
30618;BME280;17384;51.214;9.202;2023-01-10T07:40:16;98843.31;;;2.42;87.12
30618;BME280;17384;51.214;9.202;2023-01-10T07:42:41;98846.97;;;2.32;87.12
30618;BME280;17384;51.214;9.202;2023-01-10T07:45:07;98856.50;;;2.35;87.02
30618;BME280;17384;51.214;9.202;2023-01-10T07:47:33;98869.00;;;2.26;87.60
30618;BME280;17384;51.214;9.202;2023-01-10T07:49:59;98866.84;;;2.30;87.73
30618;BME280;17384;51.214;9.202;2023-01-10T07:52:24;98876.59;;;2.39;87.60
30618;BME280;17384;51.214;9.202;2023-01-10T07:54:50;98886.84;;;2.52;86.77
30618;BME280;17384;51.214;9.202;2023-01-10T07:57:16;98889.38;;;2.61;86.58
30618;BME280;17384;51.214;9.202;2023-01-10T07:59:42;98890.56;;;2.59;86.49
30618;BME280;17384;51.214;9.202;2023-01-10T08:02:09;98889.88;;;2.57;86.56
30618;BME280;17384;51.214;9.202;2023-01-10T08:04:34;98879.13;;;2.41;86.69
30618;BME280;17384;51.214;9.202;2023-01-10T08:07:00;98885.16;;;2.43;87.04
30618;BME280;17384;51.214;9.202;2023-01-10T08:09:25;98886.31;;;2.40;87.08
30618;BME280;17384;51.214;9.202;2023-01-10T08:11:51;98891.16;;;2.36;87.12
30618;BME280;17384;51.214;9.202;2023-01-10T08:14:16;98891.66;;;2.40;87.12
30618;BME280;17384;51.214;9.202;2023-01-10T08:16:42;98886.84;;;2.44;87.31
30618;BME280;17384;51.214;9.202;2023-01-10T08:19:07;98897.63;;;2.68;86.09
30618;BME280;17384;51.214;9.202;2023-01-10T08:21:32;98898.63;;;2.75;85.66
30618;BME280;17384;51.214;9.202;2023-01-10T08:23:58;98888.44;;;2.87;84.96
30618;BME280;17384;51.214;9.202;2023-01-10T08:26:23;98899.69;;;2.90;84.73
30618;BME280;17384;51.214;9.202;2023-01-10T08:28:49;98891.13;;;2.87;85.17
30618;BME280;17384;51.214;9.202;2023-01-10T08:31:14;98905.06;;;2.98;85.17
30618;BME280;17384;51.214;9.202;2023-01-10T08:33:40;98915.59;;;3.08;85.13
30618;BME280;17384;51.214;9.202;2023-01-10T08:36:09;98906.94;;;3.22;84.88
30618;BME280;17384;51.214;9.202;2023-01-10T08:38:38;98905.75;;;3.25;84.63
30618;BME280;17384;51.214;9.202;2023-01-10T08:41:04;98907.59;;;3.40;84.49
30618;BME280;17384;51.214;9.202;2023-01-10T08:43:29;98918.16;;;3.50;83.93
30618;BME280;17384;51.214;9.202;2023-01-10T08:45:54;98930.56;;;3.51;84.09
30618;BME280;17384;51.214;9.202;2023-01-10T08:48:20;98934.25;;;3.50;84.41
30618;BME280;17384;51.214;9.202;2023-01-10T08:50:45;98938.09;;;3.56;84.95
30618;BME280;17384;51.214;9.202;2023-01-10T08:53:11;98940.28;;;3.60;84.44
30618;BME280;17384;51.214;9.202;2023-01-10T08:55:37;98925.53;;;3.64;83.62
30618;BME280;17384;51.214;9.202;2023-01-10T08:58:03;98945.31;;;3.71;83.50
30618;BME280;17384;51.214;9.202;2023-01-10T09:00:29;98942.31;;;3.74;83.55
30618;BME280;17384;51.214;9.202;2023-01-10T09:02:54;98945.66;;;3.77;84.11
30618;BME280;17384;51.214;9.202;2023-01-10T09:05:20;98952.03;;;3.76;83.44
30618;BME280;17384;51.214;9.202;2023-01-10T09:07:45;98932.06;;;3.78;83.17
30618;BME280;17384;51.214;9.202;2023-01-10T09:10:11;98951.00;;;3.85;83.93
30618;BME280;17384;51.214;9.202;2023-01-10T09:12:37;98955.03;;;3.89;83.32
30618;BME280;17384;51.214;9.202;2023-01-10T09:15:29;98956.38;;;3.93;83.48
30618;BME280;17384;51.214;9.202;2023-01-10T09:17:57;98958.38;;;3.91;82.99
30618;BME280;17384;51.214;9.202;2023-01-10T09:20:24;98954.00;;;3.98;83.07
30618;BME280;17384;51.214;9.202;2023-01-10T09:22:50;98960.06;;;4.00;82.45
30618;BME280;17384;51.214;9.202;2023-01-10T09:25:16;98965.75;;;4.05;82.65
30618;BME280;17384;51.214;9.202;2023-01-10T09:27:41;98974.28;;;4.25;82.11
30618;BME280;17384;51.214;9.202;2023-01-10T09:30:07;98981.41;;;4.96;80.07
30618;BME280;17384;51.214;9.202;2023-01-10T09:32:33;98973.16;;;4.97;79.38
30618;BME280;17384;51.214;9.202;2023-01-10T09:34:58;98991.06;;;4.82;79.76
30618;BME280;17384;51.214;9.202;2023-01-10T09:37:24;99000.63;;;4.85;79.70
30618;BME280;17384;51.214;9.202;2023-01-10T09:39:49;98990.03;;;4.91;79.84
30618;BME280;17384;51.214;9.202;2023-01-10T09:42:42;98994.94;;;4.71;79.86
30618;BME280;17384;51.214;9.202;2023-01-10T09:47:52;98999.97;;;4.83;81.60
30618;BME280;17384;51.214;9.202;2023-01-10T09:52:51;99006.94;;;4.53;79.97
30618;BME280;17384;51.214;9.202;2023-01-10T09:55:23;98983.59;;;4.53;80.71
30618;BME280;17384;51.214;9.202;2023-01-10T09:57:51;98995.00;;;4.55;80.91
30618;BME280;17384;51.214;9.202;2023-01-10T10:00:29;98984.94;;;4.49;80.25
30618;BME280;17384;51.214;9.202;2023-01-10T10:02:55;98993.50;;;4.53;80.58
30618;BME280;17384;51.214;9.202;2023-01-10T10:05:26;98996.19;;;4.53;79.58
30618;BME280;17384;51.214;9.202;2023-01-10T10:07:57;98998.88;;;4.53;80.45
30618;BME280;17384;51.214;9.202;2023-01-10T10:10:29;99007.09;;;4.51;80.41
30618;BME280;17384;51.214;9.202;2023-01-10T10:13:07;99004.09;;;4.54;80.63
30618;BME280;17384;51.214;9.202;2023-01-10T10:19:08;99009.63;;;4.45;80.00
30618;BME280;17384;51.214;9.202;2023-01-10T10:21:47;99009.28;;;4.48;80.73
30618;BME280;17384;51.214;9.202;2023-01-10T10:24:41;99002.09;;;4.40;78.68
30618;BME280;17384;51.214;9.202;2023-01-10T10:27:21;99005.59;;;4.49;79.48
30618;BME280;17384;51.214;9.202;2023-01-10T10:32:57;99015.16;;;4.51;79.55
30618;BME280;17384;51.214;9.202;2023-01-10T10:37:53;99003.41;;;4.60;79.06
30618;BME280;17384;51.214;9.202;2023-01-10T10:40:31;98994.31;;;4.61;78.62
30618;BME280;17384;51.214;9.202;2023-01-10T10:43:10;99006.53;;;4.72;77.80
30618;BME280;17384;51.214;9.202;2023-01-10T10:45:44;99010.56;;;4.76;76.92
30618;BME280;17384;51.214;9.202;2023-01-10T10:48:24;98998.44;;;4.80;77.97
30618;BME280;17384;51.214;9.202;2023-01-10T10:53:22;99009.78;;;4.98;77.07
30618;BME280;17384;51.214;9.202;2023-01-10T10:55:48;98989.63;;;4.94;76.56
30618;BME280;17384;51.214;9.202;2023-01-10T10:58:13;98997.88;;;4.93;76.78
30618;BME280;17384;51.214;9.202;2023-01-10T11:00:40;98998.69;;;5.01;76.71
30618;BME280;17384;51.214;9.202;2023-01-10T11:05:59;98999.00;;;5.06;76.21
30618;BME280;17384;51.214;9.202;2023-01-10T11:08:25;99000.03;;;4.97;76.72
30618;BME280;17384;51.214;9.202;2023-01-10T11:10:55;98998.25;;;4.90;76.22
30618;BME280;17384;51.214;9.202;2023-01-10T11:15:55;99003.66;;;4.82;76.60
30618;BME280;17384;51.214;9.202;2023-01-10T11:18:24;99005.50;;;4.81;76.87
30618;BME280;17384;51.214;9.202;2023-01-10T11:20:53;99010.69;;;4.91;77.50
30618;BME280;17384;51.214;9.202;2023-01-10T11:25:50;99010.03;;;4.89;76.97
30618;BME280;17384;51.214;9.202;2023-01-10T11:28:16;99019.75;;;4.90;77.58
30618;BME280;17384;51.214;9.202;2023-01-10T11:30:47;99011.38;;;4.85;77.52
30618;BME280;17384;51.214;9.202;2023-01-10T11:33:20;99004.50;;;4.82;77.53
30618;BME280;17384;51.214;9.202;2023-01-10T11:35:59;99009.38;;;4.79;78.86
30618;BME280;17384;51.214;9.202;2023-01-10T11:38:25;99024.00;;;4.76;78.21
30618;BME280;17384;51.214;9.202;2023-01-10T11:41:03;99019.47;;;4.76;78.72
30618;BME280;17384;51.214;9.202;2023-01-10T11:43:40;99023.16;;;4.75;78.57
30618;BME280;17384;51.214;9.202;2023-01-10T11:48:44;98997.81;;;4.70;78.74
30618;BME280;17384;51.214;9.202;2023-01-10T11:51:23;99005.88;;;4.70;78.56
30618;BME280;17384;51.214;9.202;2023-01-10T11:53:56;99001.84;;;4.66;78.60
30618;BME280;17384;51.214;9.202;2023-01-10T11:56:27;99013.75;;;4.71;78.92
30618;BME280;17384;51.214;9.202;2023-01-10T11:58:54;98999.63;;;4.78;78.50
30618;BME280;17384;51.214;9.202;2023-01-10T12:01:43;98999.13;;;4.82;78.16
30618;BME280;17384;51.214;9.202;2023-01-10T12:04:16;98991.69;;;4.92;77.22
30618;BME280;17384;51.214;9.202;2023-01-10T12:06:47;98986.34;;;4.84;76.80
30618;BME280;17384;51.214;9.202;2023-01-10T12:09:38;99004.50;;;4.82;77.43
30618;BME280;17384;51.214;9.202;2023-01-10T12:14:38;99007.09;;;4.98;76.33
30618;BME280;17384;51.214;9.202;2023-01-10T12:17:03;98977.03;;;4.95;75.94
30618;BME280;17384;51.214;9.202;2023-01-10T12:19:29;99000.53;;;5.01;77.13
30618;BME280;17384;51.214;9.202;2023-01-10T12:21:59;98992.63;;;5.07;75.97
30618;BME280;17384;51.214;9.202;2023-01-10T12:24:33;98997.00;;;5.00;76.00
30618;BME280;17384;51.214;9.202;2023-01-10T12:27:02;98995.34;;;4.99;75.85
30618;BME280;17384;51.214;9.202;2023-01-10T12:29:32;99001.22;;;4.95;75.87
30618;BME280;17384;51.214;9.202;2023-01-10T12:31:59;98985.41;;;5.00;75.74
30618;BME280;17384;51.214;9.202;2023-01-10T12:34:33;98998.09;;;4.91;76.23
30618;BME280;17384;51.214;9.202;2023-01-10T12:37:22;98989.38;;;4.81;76.35
30618;BME280;17384;51.214;9.202;2023-01-10T12:40:14;98982.97;;;4.90;76.61
30618;BME280;17384;51.214;9.202;2023-01-10T12:45:59;98982.47;;;4.87;77.00
30618;BME280;17384;51.214;9.202;2023-01-10T12:48:48;98973.22;;;4.89;76.43
30618;BME280;17384;51.214;9.202;2023-01-10T12:51:19;98968.25;;;4.70;77.40
30618;BME280;17384;51.214;9.202;2023-01-10T12:54:04;98984.66;;;4.83;76.88
30618;BME280;17384;51.214;9.202;2023-01-10T12:56:37;98987.50;;;4.90;77.95
30618;BME280;17384;51.214;9.202;2023-01-10T12:59:10;98990.38;;;4.88;77.47
30618;BME280;17384;51.214;9.202;2023-01-10T13:01:40;98993.41;;;4.85;76.84
30618;BME280;17384;51.214;9.202;2023-01-10T13:04:16;98996.78;;;4.71;76.86
30618;BME280;17384;51.214;9.202;2023-01-10T13:06:44;98988.06;;;4.69;77.01
30618;BME280;17384;51.214;9.202;2023-01-10T13:09:24;99005.53;;;4.73;77.03
30618;BME280;17384;51.214;9.202;2023-01-10T13:12:11;99000.53;;;4.62;77.32
30618;BME280;17384;51.214;9.202;2023-01-10T13:15:20;98994.63;;;4.66;77.23
30618;BME280;17384;51.214;9.202;2023-01-10T13:18:14;99007.22;;;4.66;77.05
30618;BME280;17384;51.214;9.202;2023-01-10T13:20:42;99005.91;;;4.62;77.05
30618;BME280;17384;51.214;9.202;2023-01-10T13:23:20;99013.81;;;4.63;77.84
30618;BME280;17384;51.214;9.202;2023-01-10T13:25:54;99005.91;;;4.62;76.89
30618;BME280;17384;51.214;9.202;2023-01-10T13:28:25;98999.53;;;4.63;77.13
30618;BME280;17384;51.214;9.202;2023-01-10T13:30:58;99009.94;;;4.58;76.68
30618;BME280;17384;51.214;9.202;2023-01-10T13:33:54;98997.69;;;4.55;76.92
30618;BME280;17384;51.214;9.202;2023-01-10T13:36:26;99016.50;;;4.55;77.25
30618;BME280;17384;51.214;9.202;2023-01-10T13:38:57;99011.81;;;4.49;77.16
30618;BME280;17384;51.214;9.202;2023-01-10T14:01:29;98973.63;;;4.70;75.75
30618;BME280;17384;51.214;9.202;2023-01-10T14:04:22;98971.09;;;4.68;75.82
30618;BME280;17384;51.214;9.202;2023-01-10T14:07:11;98968.31;;;4.62;75.78
30618;BME280;17384;51.214;9.202;2023-01-10T14:09:47;98969.25;;;4.69;75.55
30618;BME280;17384;51.214;9.202;2023-01-10T14:12:26;98958.22;;;4.64;74.99
30618;BME280;17384;51.214;9.202;2023-01-10T14:15:02;98977.03;;;4.64;75.07
30618;BME280;17384;51.214;9.202;2023-01-10T14:17:30;98966.91;;;4.66;75.12
30618;BME280;17384;51.214;9.202;2023-01-10T14:22:28;98960.91;;;4.64;74.74
30618;BME280;17384;51.214;9.202;2023-01-10T14:25:03;98964.22;;;4.66;74.55
30618;BME280;17384;51.214;9.202;2023-01-10T14:27:49;98976.81;;;4.73;74.52
30618;BME280;17384;51.214;9.202;2023-01-10T14:30:31;98953.47;;;4.66;74.57
30618;BME280;17384;51.214;9.202;2023-01-10T14:33:20;98966.44;;;4.62;75.22
30618;BME280;17384;51.214;9.202;2023-01-10T14:35:50;98959.34;;;4.69;75.54
30618;BME280;17384;51.214;9.202;2023-01-10T14:38:25;98956.16;;;4.66;74.45
30618;BME280;17384;51.214;9.202;2023-01-10T14:40:56;98934.88;;;4.64;74.43
30618;BME280;17384;51.214;9.202;2023-01-10T14:43:29;98952.84;;;4.64;74.71
30618;BME280;17384;51.214;9.202;2023-01-10T14:46:05;98951.84;;;4.57;74.13
30618;BME280;17384;51.214;9.202;2023-01-10T14:48:44;98947.16;;;4.59;73.86
30618;BME280;17384;51.214;9.202;2023-01-10T14:54:10;98929.69;;;4.55;72.91